Time;durP1;ratioP1;P1;durP2;ratioP2;P2;SDS_P1;SDS_P2;PMS_P1;PMS_P2;Temp;Humidity;BMP_temperature;BMP_pressure;BME280_temperature;BME280_humidity;BME280_pressure;Samples;Min_cycle;Max_cycle;Signal;HPM_P1;HPM_P2
2022/10/01 00:00:12;;;;;;;1.48;0.88;;;20.20;46.90;;;;;;20562312;28;20393;-75
2022/10/01 00:10:14;;;;;;;2.85;1.00;;;20.20;47.00;;;;;;20559515;28;20482;-75
2022/10/01 00:20:17;;;;;;;0.80;0.68;;;20.20;47.00;;;;;;20620224;28;20074;-75
2022/10/01 00:30:19;;;;;;;0.60;0.60;;;20.20;47.10;;;;;;20640258;28;20062;-75
2022/10/01 00:40:28;;;;;;;1.27;0.75;;;20.20;47.10;;;;;;20587229;28;20035;-74
2022/10/01 00:50:31;;;;;;;2.25;0.85;;;20.20;47.10;;;;;;20558084;28;20596;-75
2022/10/01 01:00:34;;;;;;;1.38;0.85;;;20.20;47.20;;;;;;20515524;28;20062;-76
2022/10/01 01:11:00;;;;;;;2.10;0.80;;;20.10;47.20;;;;;;20572573;28;20089;-75
2022/10/01 01:21:22;;;;;;;2.10;0.50;;;20.20;47.20;;;;;;20571911;28;20034;-76
2022/10/01 01:31:26;;;;;;;0.88;0.68;;;20.10;47.20;;;;;;20573439;28;20409;-73
2022/10/01 01:52:14;;;;;;;1.05;0.60;;;20.10;47.20;;;;;;20826153;22;20051;-73
2022/10/01 02:02:22;;;;;;;1.20;0.60;;;20.10;47.30;;;;;;20519042;28;20130;-74
2022/10/01 02:12:28;;;;;;;1.73;0.80;;;20.10;47.40;;;;;;20536885;28;20050;-74
2022/10/01 02:22:51;;;;;;;1.63;0.73;;;20.10;47.40;;;;;;20663249;28;20066;-73
2022/10/01 02:32:52;;;;;;;0.90;0.63;;;20.10;47.40;;;;;;20586067;28;20039;-74
2022/10/01 02:43:02;;;;;;;1.55;0.70;;;20.00;47.40;;;;;;20549433;28;20081;-73
2022/10/01 02:53:06;;;;;;;0.80;0.60;;;20.00;47.40;;;;;;20548364;28;20043;-73
2022/10/01 03:03:08;;;;;;;0.90;0.50;;;20.10;47.50;;;;;;20501612;28;20397;-77
2022/10/01 03:13:10;;;;;;;0.90;0.57;;;20.10;47.60;;;;;;20563529;28;20045;-73
2022/10/01 03:23:12;;;;;;;1.60;0.60;;;20.00;47.50;;;;;;20546528;28;20081;-73
2022/10/01 03:33:16;;;;;;;0.98;0.60;;;20.00;47.70;;;;;;20550125;28;20065;-74
2022/10/01 03:43:17;;;;;;;1.17;0.50;;;20.00;47.60;;;;;;20610829;28;20396;-74
2022/10/01 03:53:20;;;;;;;1.52;0.68;;;20.00;47.70;;;;;;20560815;28;20054;-74
2022/10/01 04:03:21;;;;;;;0.85;0.60;;;20.00;47.70;;;;;;20527148;28;20130;-74
2022/10/01 04:13:21;;;;;;;1.23;0.60;;;20.00;47.70;;;;;;20465362;28;20142;-74
2022/10/01 04:23:23;;;;;;;0.77;0.40;;;20.80;46.50;;;;;;20563236;28;20108;-74
2022/10/01 04:33:25;;;;;;;0.63;0.40;;;21.10;45.70;;;;;;20529266;28;20073;-74
2022/10/01 04:43:26;;;;;;;1.17;0.40;;;21.40;44.90;;;;;;20590864;28;20046;-74
2022/10/01 04:53:27;;;;;;;1.55;0.60;;;21.60;44.40;;;;;;20502961;28;20045;-75
2022/10/01 05:03:28;;;;;;;0.65;0.45;;;21.70;44.90;;;;;;20616297;28;20114;-74
2022/10/01 05:13:30;;;;;;;0.90;0.40;;;21.80;44.10;;;;;;20556866;28;20035;-74
2022/10/01 05:23:32;;;;;;;0.45;0.40;;;21.80;44.10;;;;;;20545255;28;20290;-75
2022/10/01 05:33:33;;;;;;;0.55;0.35;;;21.70;44.30;;;;;;20549609;28;20047;-74
2022/10/01 05:43:34;;;;;;;1.02;0.60;;;21.70;44.20;;;;;;20493587;28;20043;-74
2022/10/01 05:53:37;;;;;;;0.82;0.50;;;21.60;44.20;;;;;;20506515;28;20035;-73
2022/10/01 06:03:38;;;;;;;0.98;0.57;;;21.60;44.30;;;;;;20516700;28;20031;-73
2022/10/01 06:13:44;;;;;;;1.50;0.73;;;21.50;44.40;;;;;;20482001;28;20573;-72
2022/10/01 06:23:44;;;;;;;1.38;0.45;;;21.50;45.20;;;;;;20602004;28;20412;-73
2022/10/01 06:33:45;;;;;;;0.52;0.43;;;21.50;44.70;;;;;;20539672;28;20070;-72
2022/10/01 06:43:47;;;;;;;1.13;0.43;;;21.40;44.80;;;;;;20564306;28;20129;-72
2022/10/01 06:53:48;;;;;;;1.13;0.68;;;21.30;44.90;;;;;;20553731;28;20055;-71
2022/10/01 07:03:52;;;;;;;0.63;0.60;;;21.30;45.10;;;;;;20607209;28;20122;-74
2022/10/01 07:13:53;;;;;;;1.03;0.63;;;21.30;45.10;;;;;;20530702;28;20102;-76
2022/10/01 07:23:55;;;;;;;0.55;0.50;;;21.30;45.40;;;;;;20485758;28;20023;-72
2022/10/01 07:33:57;;;;;;;5.85;0.55;;;21.20;45.50;;;;;;20531383;28;20039;-72
2022/10/01 07:43:58;;;;;;;7.00;0.80;;;21.10;45.70;;;;;;20487261;28;20046;-72
2022/10/01 07:53:58;;;;;;;3.72;1.15;;;21.10;45.80;;;;;;20531775;28;20039;-71
2022/10/01 08:03:59;;;;;;;3.40;0.68;;;21.00;47.00;;;;;;20560003;28;20042;-73
2022/10/01 08:14:00;;;;;;;2.13;1.30;;;20.90;47.50;;;;;;20570948;28;20100;-75
2022/10/01 08:24:02;;;;;;;1.55;0.70;;;20.80;48.30;;;;;;20552699;28;20037;-74
2022/10/01 08:34:03;;;;;;;1.23;0.68;;;20.70;49.10;;;;;;20551935;28;20106;-73
2022/10/01 08:44:04;;;;;;;2.92;0.90;;;20.60;49.60;;;;;;20519230;28;20043;-73
2022/10/01 08:54:32;;;;;;;4.93;0.95;;;20.70;49.40;;;;;;20521958;28;20041;-73
2022/10/01 09:04:34;;;;;;;6.07;1.08;;;20.80;49.00;;;;;;20515966;28;20058;-73
2022/10/01 09:14:37;;;;;;;3.95;0.80;;;20.90;49.00;;;;;;20580868;28;20039;-73
2022/10/01 09:25:05;;;;;;;4.38;0.77;;;20.70;50.50;;;;;;20554017;28;20042;-78
2022/10/01 09:35:33;;;;;;;7.70;1.27;;;20.80;50.00;;;;;;20522459;28;20043;-79
2022/10/01 09:45:35;;;;;;;2.65;0.90;;;20.70;50.00;;;;;;20556531;28;20150;-78
2022/10/01 09:55:39;;;;;;;3.60;1.50;;;20.70;49.90;;;;;;20562254;28;20039;-76
2022/10/01 10:05:42;;;;;;;0.88;0.75;;;20.70;49.70;;;;;;20524181;28;20046;-74
2022/10/01 10:15:49;;;;;;;0.65;0.50;;;20.60;50.40;;;;;;20517639;28;20045;-72
2022/10/01 10:26:01;;;;;;;0.50;0.30;;;20.70;49.60;;;;;;20554229;28;20401;-74
2022/10/01 10:36:04;;;;;;;0.75;0.28;;;20.70;49.60;;;;;;20511394;28;20070;-72
2022/10/01 10:46:07;;;;;;;0.43;0.32;;;20.60;49.60;;;;;;20548918;28;20094;-76
2022/10/01 10:56:16;;;;;;;0.95;0.55;;;20.60;49.80;;;;;;20562992;28;20460;-77
2022/10/01 11:06:17;;;;;;;0.73;0.32;;;20.60;49.80;;;;;;20634612;28;20038;-70
2022/10/01 11:16:27;;;;;;;1.13;0.50;;;20.60;50.00;;;;;;20607467;28;20121;-72
2022/10/01 11:26:54;;;;;;;1.13;0.55;;;20.50;50.00;;;;;;20511578;28;20035;-73
2022/10/01 11:36:54;;;;;;;;;;;20.40;50.40;;;;;;20569234;28;20046;-73
2022/10/01 11:47:01;;;;;;;2.90;0.80;;;20.40;50.80;;;;;;20571074;28;20005;-75
2022/10/01 12:07:35;;;;;;;3.97;0.50;;;20.40;51.20;;;;;;20567578;28;20039;-80
2022/10/01 12:17:57;;;;;;;0.75;0.30;;;20.30;51.20;;;;;;20541314;28;20101;-80
2022/10/01 12:28:09;;;;;;;0.98;0.40;;;20.40;51.40;;;;;;20548985;28;20039;-74
2022/10/01 12:38:19;;;;;;;1.10;0.52;;;20.30;51.50;;;;;;20520091;28;20542;-73
2022/10/01 12:48:24;;;;;;;1.85;0.45;;;20.30;51.80;;;;;;20559996;28;20069;-74
2022/10/01 12:58:43;;;;;;;;;;;20.30;51.90;;;;;;20586394;28;20051;-73
2022/10/01 13:09:15;;;;;;;0.73;0.40;;;20.30;51.80;;;;;;20591533;28;19918;-73
2022/10/01 13:19:26;;;;;;;1.08;0.40;;;20.30;52.30;;;;;;20571038;28;20043;-75
2022/10/01 13:29:40;;;;;;;0.93;0.43;;;20.30;52.70;;;;;;20589252;28;20397;-74
2022/10/01 13:39:42;;;;;;;15.13;1.80;;;20.40;51.90;;;;;;20561478;28;20039;-74
2022/10/01 13:49:51;;;;;;;11.52;1.40;;;20.50;52.00;;;;;;20530454;28;20073;-74
2022/10/01 13:59:59;;;;;;;2.65;1.00;;;20.60;52.70;;;;;;20539631;28;20113;-73
2022/10/01 14:10:00;;;;;;;13.15;2.15;;;20.60;52.10;;;;;;20576244;28;20031;-74
2022/10/01 14:20:02;;;;;;;4.95;1.23;;;20.70;52.30;;;;;;20543323;28;20037;-74
2022/10/01 14:30:15;;;;;;;9.75;1.23;;;20.80;52.40;;;;;;20566408;28;20510;-73
2022/10/01 14:40:20;;;;;;;3.33;1.00;;;20.90;52.80;;;;;;20542919;28;20051;-79
2022/10/01 14:50:21;;;;;;;7.67;1.80;;;20.90;53.00;;;;;;20527109;28;20038;-78
2022/10/01 15:00:24;;;;;;;17.77;3.58;;;21.00;53.40;;;;;;20533188;28;20062;-78
2022/10/01 15:10:25;;;;;;;12.57;1.92;;;21.00;53.60;;;;;;20474651;28;20090;-79
2022/10/01 15:20:27;;;;;;;10.48;2.58;;;20.90;54.40;;;;;;20574030;28;20050;-76
2022/10/01 15:30:28;;;;;;;5.88;1.48;;;20.90;53.80;;;;;;20551414;28;20034;-77
2022/10/01 15:40:29;;;;;;;3.22;1.10;;;20.90;53.80;;;;;;20599845;28;20049;-72
2022/10/01 15:50:35;;;;;;;4.22;1.17;;;20.80;53.80;;;;;;20528018;28;20046;-73
2022/10/01 16:00:55;;;;;;;5.53;1.08;;;20.80;53.70;;;;;;20543523;28;20122;-75
2022/10/01 16:11:16;;;;;;;3.47;1.67;;;20.80;54.30;;;;;;20504991;28;20043;-77
2022/10/01 16:21:16;;;;;;;3.72;1.27;;;20.80;53.60;;;;;;20588775;28;20397;-78
2022/10/01 16:31:17;;;;;;;1.20;0.80;;;20.80;53.50;;;;;;20545490;28;20042;-77
2022/10/01 16:41:21;;;;;;;0.68;0.45;;;20.70;53.60;;;;;;20539931;28;20122;-76
2022/10/01 16:51:21;;;;;;;2.10;0.57;;;20.60;53.70;;;;;;20551004;28;20124;-76
2022/10/01 17:01:22;;;;;;;1.88;0.65;;;20.60;53.70;;;;;;20541078;28;20065;-77
2022/10/01 17:11:23;;;;;;;1.37;0.60;;;20.60;53.80;;;;;;20545328;28;20049;-77
2022/10/01 17:21:23;;;;;;;2.20;0.65;;;20.50;53.70;;;;;;20550607;28;20302;-78
2022/10/01 17:31:26;;;;;;;0.88;0.50;;;20.50;53.80;;;;;;20541440;28;20039;-77
2022/10/01 17:41:26;;;;;;;2.28;0.52;;;20.40;53.70;;;;;;20632633;28;20100;-77
2022/10/01 17:51:27;;;;;;;1.87;0.70;;;20.40;53.70;;;;;;20615320;28;20477;-77
2022/10/01 18:01:28;;;;;;;0.35;0.30;;;20.30;53.80;;;;;;20546017;28;20305;-77
2022/10/01 18:11:28;;;;;;;1.05;0.47;;;20.30;53.80;;;;;;20479039;28;20039;-77
2022/10/01 18:21:29;;;;;;;2.30;0.50;;;20.30;53.90;;;;;;20543066;28;20039;-77
2022/10/01 18:31:34;;;;;;;0.80;0.50;;;20.30;54.00;;;;;;20518681;28;20485;-77
2022/10/01 18:41:36;;;;;;;1.50;0.73;;;20.20;54.00;;;;;;20488879;28;20035;-78
2022/10/01 18:51:50;;;;;;;1.55;0.70;;;20.20;54.00;;;;;;20484372;28;20042;-77
2022/10/01 19:02:00;;;;;;;1.50;0.50;;;20.20;54.10;;;;;;20552255;28;20072;-77
2022/10/01 19:12:51;;;;;;;1.77;0.90;;;20.20;54.10;;;;;;20500506;28;20082;-77
2022/10/01 19:23:11;;;;;;;0.80;0.50;;;20.10;54.10;;;;;;20575237;28;20126;-78
2022/10/01 19:33:11;;;;;;;1.63;0.68;;;20.10;54.20;;;;;;20514210;28;21890;-78
2022/10/01 19:43:18;;;;;;;1.20;0.63;;;20.10;54.30;;;;;;20474010;28;20043;-78
2022/10/01 19:53:26;;;;;;;1.65;0.60;;;20.10;54.40;;;;;;20503182;28;20031;-78
2022/10/01 20:03:40;;;;;;;1.92;0.98;;;20.00;54.40;;;;;;20468490;28;20407;-78
2022/10/01 20:14:06;;;;;;;1.33;0.60;;;20.00;54.50;;;;;;20551506;28;20133;-78
2022/10/01 20:24:40;;;;;;;2.87;0.83;;;19.90;54.50;;;;;;20589282;28;20047;-78
2022/10/01 20:34:57;;;;;;;1.85;0.68;;;19.90;54.60;;;;;;20545634;28;20045;-78
2022/10/01 20:44:59;;;;;;;1.50;0.57;;;19.90;54.70;;;;;;20578903;28;20676;-78
2022/10/01 20:55:05;;;;;;;2.78;0.70;;;19.90;54.60;;;;;;20568836;28;20908;-78
2022/10/01 21:05:20;;;;;;;1.52;0.45;;;19.90;54.70;;;;;;20511172;28;20043;-78
2022/10/01 21:15:22;;;;;;;2.47;0.50;;;19.80;54.60;;;;;;20483383;28;20035;-77
2022/10/01 21:25:26;;;;;;;2.38;1.10;;;19.80;54.70;;;;;;20540086;28;20039;-78
2022/10/01 21:35:48;;;;;;;0.63;0.63;;;19.80;54.70;;;;;;20538295;28;20375;-78
2022/10/01 21:45:50;;;;;;;3.05;1.10;;;19.80;55.40;;;;;;20555623;28;20043;-78
2022/10/01 21:56:06;;;;;;;2.47;1.05;;;19.80;54.70;;;;;;20554374;28;20449;-78
2022/10/01 22:06:11;;;;;;;3.53;1.13;;;19.80;54.80;;;;;;20554742;28;20045;-78
2022/10/01 22:16:13;;;;;;;3.20;0.82;;;19.70;54.80;;;;;;20576577;28;20749;-78
2022/10/01 22:26:18;;;;;;;2.58;0.93;;;19.70;54.80;;;;;;20471608;29;20043;-78
2022/10/01 22:36:22;;;;;;;;;;;19.70;54.80;;;;;;20507652;28;20039;-79
2022/10/01 22:46:40;;;;;;;2.40;0.85;;;19.60;54.80;;;;;;20580649;28;19922;-78
2022/10/01 22:56:53;;;;;;;3.38;0.80;;;19.60;54.80;;;;;;20600036;28;20044;-78
2022/10/01 23:06:55;;;;;;;1.08;0.60;;;19.60;54.80;;;;;;20582794;28;20038;-78
2022/10/01 23:17:05;;;;;;;2.30;0.93;;;19.60;54.90;;;;;;20523876;28;20035;-78
2022/10/01 23:27:09;;;;;;;4.38;0.80;;;19.60;54.90;;;;;;20483230;29;20542;-78
2022/10/01 23:37:33;;;;;;;2.10;0.80;;;19.60;54.90;;;;;;20574483;28;20400;-78
2022/10/01 23:47:56;;;;;;;2.83;0.82;;;19.50;54.90;;;;;;20658624;28;20049;-78
2022/10/01 23:57:56;;;;;;;1.58;0.70;;;19.50;54.90;;;;;;20566736;28;20485;-78
